Time;durP1;ratioP1;P1;durP2;ratioP2;P2;SDS_P1;SDS_P2;PMS_P1;PMS_P2;Temp;Humidity;BMP_temperature;BMP_pressure;BME280_temperature;BME280_humidity;BME280_pressure;Samples;Min_cycle;Max_cycle;Signal;HPM_P1;HPM_P2
2021/08/11 00:01:11;;;;;;;4.65;3.17;;;;;;;27.61;33.68;100220.41;5115357;28;20027;-69
2021/08/11 00:03:42;;;;;;;6.45;3.00;;;;;;;27.62;33.54;100222.78;5115685;28;20032;-70
2021/08/11 00:06:10;;;;;;;7.47;2.72;;;;;;;27.62;33.44;100262.78;5115361;28;20023;-69
2021/08/11 00:08:35;;;;;;;6.43;2.95;;;;;;;27.69;33.33;100311.03;5116059;28;20359;-70
2021/08/11 00:11:01;;;;;;;11.30;3.15;;;;;;;27.65;32.85;100306.78;5115301;28;20035;-69
2021/08/11 00:13:34;;;;;;;6.63;3.05;;;;;;;27.78;32.53;100273.13;5115261;28;20069;-68
2021/08/11 00:15:59;;;;;;;6.30;2.58;;;;;;;27.81;32.10;100269.31;5115120;28;20024;-69
2021/08/11 00:18:28;;;;;;;3.78;2.10;;;;;;;27.81;31.81;100283.59;5115217;28;20054;-70
2021/08/11 00:20:57;;;;;;;4.18;2.53;;;;;;;27.96;31.31;100269.41;5115342;28;20032;-69
2021/08/11 00:23:25;;;;;;;4.05;2.00;;;;;;;28.02;30.88;100258.94;5115045;28;20126;-69
2021/08/11 00:25:54;;;;;;;4.60;2.00;;;;;;;28.24;30.50;100255.03;5115008;28;20120;-69
2021/08/11 00:28:25;;;;;;;4.65;2.33;;;;;;;28.23;31.46;100264.84;5116057;27;20024;-69
2021/08/11 00:30:52;;;;;;;10.70;3.88;;;;;;;28.03;31.84;100237.63;5115393;28;20478;-69
2021/08/11 00:33:21;;;;;;;4.65;2.42;;;;;;;27.76;32.23;100214.84;5115081;28;20404;-70
2021/08/11 00:35:52;;;;;;;7.32;2.70;;;;;;;27.69;33.04;100199.56;5132114;27;20046;-70
2021/08/11 00:38:22;;;;;;;7.30;2.75;;;;;;;27.34;34.25;100195.53;5114969;28;20020;-68
2021/08/11 00:40:50;;;;;;;3.88;2.22;;;;;;;27.29;34.01;100194.13;5114726;28;20032;-69
2021/08/11 00:43:18;;;;;;;12.57;3.35;;;;;;;27.24;34.48;100211.09;5114873;28;20049;-69
2021/08/11 00:45:48;;;;;;;6.35;2.28;;;;;;;27.39;34.17;100226.31;5114573;28;20031;-70
2021/08/11 00:48:16;;;;;;;2.85;2.45;;;;;;;27.55;33.67;100233.75;5113920;28;20027;-70
2021/08/11 00:50:44;;;;;;;6.22;2.55;;;;;;;27.68;32.77;100226.56;5115007;28;20035;-70
2021/08/11 00:53:14;;;;;;;3.10;2.10;;;;;;;27.72;32.47;100202.78;5131689;27;20088;-70
2021/08/11 00:55:45;;;;;;;4.28;1.85;;;;;;;27.70;32.37;100194.69;5114469;28;20027;-70
2021/08/11 00:58:14;;;;;;;5.32;2.28;;;;;;;27.84;32.51;100194.00;5115413;28;20020;-70
2021/08/11 01:00:45;;;;;;;3.10;2.50;;;;;;;27.71;32.88;100189.78;5116234;28;20027;-70
2021/08/11 01:03:16;;;;;;;3.83;2.45;;;;;;;27.49;33.72;100176.47;5132039;27;20136;-70
2021/08/11 01:05:45;;;;;;;4.68;2.50;;;;;;;27.25;34.24;100176.34;5115875;28;20039;-70
2021/08/11 01:08:20;;;;;;;3.25;2.72;;;;;;;27.37;34.13;100163.16;5114489;28;20374;-70
2021/08/11 01:10:50;;;;;;;5.85;2.80;;;;;;;27.53;33.97;100162.78;5114093;28;20055;-70
2021/08/11 01:13:21;;;;;;;6.57;2.38;;;;;;;27.41;34.13;100163.78;5131226;27;20031;-71
2021/08/11 01:15:50;;;;;;;3.30;2.20;;;;;;;27.51;34.41;100170.28;5114100;28;20035;-69
2021/08/11 01:18:19;;;;;;;3.90;2.42;;;;;;;27.39;34.24;100177.75;5113819;28;20466;-70
2021/08/11 01:20:59;;;;;;;5.93;2.80;;;;;;;27.18;34.80;100181.59;5097357;28;20085;-70
2021/08/11 01:23:42;;;;;;;4.22;3.25;;;;;;;26.99;35.72;100186.50;5114178;28;20036;-69
2021/08/11 01:26:32;;;;;;;4.93;2.67;;;;;;;26.92;35.87;100178.25;5115626;27;20024;-70
2021/08/11 01:29:19;;;;;;;8.30;2.72;;;;;;;26.97;35.89;100201.25;5115385;28;20458;-69
2021/08/11 01:31:57;;;;;;;6.57;3.10;;;;;;;26.93;35.44;100203.47;5114326;28;20034;-69
2021/08/11 01:34:42;;;;;;;3.28;2.58;;;;;;;27.02;35.30;100206.31;5113964;28;20027;-70
2021/08/11 01:37:15;;;;;;;5.35;2.60;;;;;;;27.06;35.63;100204.13;5130736;27;20051;-70
2021/08/11 01:39:53;;;;;;;4.20;2.50;;;;;;;26.85;35.63;100187.94;5113579;28;20115;-69
2021/08/11 01:42:36;;;;;;;6.78;2.65;;;;;;;26.76;35.51;100187.91;5130919;27;20122;-70
2021/08/11 01:45:06;;;;;;;3.67;2.70;;;;;;;26.89;35.64;100182.84;5113525;28;20034;-69
2021/08/11 01:47:38;;;;;;;8.35;3.10;;;;;;;26.68;36.87;100172.38;5114572;28;20378;-70
2021/08/11 01:50:09;;;;;;;3.35;2.47;;;;;;;26.42;37.05;100161.25;5113731;28;20076;-70
2021/08/11 01:52:43;;;;;;;3.95;2.42;;;;;;;26.50;36.73;100148.25;5113355;28;20020;-69
2021/08/11 01:55:14;;;;;;;5.07;2.63;;;;;;;26.44;37.18;100140.81;5113392;28;20027;-70
2021/08/11 01:57:49;;;;;;;9.40;3.25;;;;;;;26.48;36.64;100135.75;5114689;28;20023;-70
2021/08/11 02:00:19;;;;;;;5.38;2.65;;;;;;;26.41;37.10;100125.38;5112641;28;20057;-70
2021/08/11 02:02:49;;;;;;;5.07;2.75;;;;;;;26.36;37.33;100100.34;5113698;28;20440;-70
2021/08/11 02:05:20;;;;;;;4.32;2.60;;;;;;;26.47;36.99;100123.53;5130552;27;20374;-69
2021/08/11 02:07:51;;;;;;;4.60;2.50;;;;;;;26.49;36.99;100114.50;5113120;28;20058;-70
2021/08/11 02:10:23;;;;;;;6.40;2.83;;;;;;;26.49;37.35;100094.53;5130168;27;20020;-70
2021/08/11 02:12:52;;;;;;;6.97;3.27;;;;;;;26.58;36.97;100078.22;5114357;28;20024;-69
2021/08/11 02:15:24;;;;;;;4.60;2.90;;;;;;;26.66;36.69;100084.38;5113252;28;20370;-70
2021/08/11 02:17:58;;;;;;;4.75;2.80;;;;;;;26.59;36.40;100082.66;5112922;28;20030;-71
2021/08/11 02:20:24;;;;;;;24.23;17.73;;;;;;;26.63;36.81;100074.72;5114012;28;20401;-69
2021/08/11 02:22:54;;;;;;;25.52;21.92;;;;;;;26.63;36.69;100074.72;5112937;28;20047;-69
2021/08/11 02:25:25;;;;;;;23.08;20.35;;;;;;;26.53;36.55;100061.72;5112863;28;20034;-70
2021/08/11 02:28:10;;;;;;;8.73;3.95;;;;;;;26.53;36.24;100061.72;5114106;28;20023;-71
2021/08/11 02:31:04;;;;;;;3.17;2.67;;;;;;;26.54;36.39;100059.66;5113808;28;20028;-69
2021/08/11 02:33:49;;;;;;;5.63;2.95;;;;;;;26.66;36.76;100066.47;5112061;28;20036;-69
2021/08/11 02:36:27;;;;;;;9.23;5.20;;;;;;;26.56;36.92;100066.47;5130316;27;20031;-71
2021/08/11 02:39:00;;;;;;;11.35;10.35;;;;;;;26.57;36.85;100070.91;5113217;28;20024;-70
2021/08/11 02:41:36;;;;;;;14.63;13.23;;;;;;;26.56;36.78;100055.06;5114096;28;20055;-71
2021/08/11 02:44:11;;;;;;;13.85;11.23;;;;;;;26.73;36.76;100054.72;5113155;28;20035;-69
2021/08/11 02:46:45;;;;;;;9.30;7.82;;;;;;;26.72;36.72;100053.16;5113623;27;20028;-70
2021/08/11 02:49:21;;;;;;;11.18;6.15;;;;;;;26.79;36.54;100029.97;5129765;28;20473;-69
2021/08/11 02:51:47;;;;;;;8.93;6.72;;;;;;;26.88;36.44;100015.69;5113849;28;20106;-70
2021/08/11 02:54:17;;;;;;;7.47;4.65;;;;;;;26.84;36.27;100015.06;5113051;28;20122;-71
2021/08/11 02:56:47;;;;;;;7.90;3.53;;;;;;;26.72;36.31;100018.91;5112756;28;20078;-70
2021/08/11 02:59:13;;;;;;;6.57;3.22;;;;;;;26.60;36.19;100007.19;5112459;28;20069;-71
2021/08/11 03:01:43;;;;;;;5.60;3.13;;;;;;;26.74;35.48;100010.66;5112743;28;20039;-71
2021/08/11 03:04:12;;;;;;;6.57;3.40;;;;;;;26.82;35.50;100020.47;5130077;28;20031;-70
2021/08/11 03:06:40;;;;;;;6.53;2.47;;;;;;;26.77;35.19;100035.38;5112425;28;20036;-71
2021/08/11 03:09:12;;;;;;;5.72;3.13;;;;;;;26.76;34.89;100040.31;5112223;28;20523;-70
2021/08/11 03:11:40;;;;;;;5.25;3.20;;;;;;;26.76;34.96;100030.94;5116378;27;20077;-70
2021/08/11 03:14:13;;;;;;;7.07;4.13;;;;;;;26.84;34.58;100037.91;5116388;28;20039;-70
2021/08/11 03:16:42;;;;;;;5.90;3.95;;;;;;;26.89;34.44;100042.97;5116591;28;20028;-69
2021/08/11 03:19:08;;;;;;;6.50;3.63;;;;;;;26.88;34.66;100039.31;5116348;28;20039;-70
2021/08/11 03:21:39;;;;;;;4.93;2.90;;;;;;;26.96;34.28;100028.38;5116608;28;20378;-69
2021/08/11 03:24:10;;;;;;;7.07;3.95;;;;;;;27.07;33.68;100033.59;5116756;28;20041;-70
2021/08/11 03:26:40;;;;;;;6.72;3.28;;;;;;;27.06;34.08;100032.78;5116200;28;20024;-71
2021/08/11 03:29:11;;;;;;;4.45;3.17;;;;;;;27.04;33.80;100035.31;5116127;28;20038;-69
2021/08/11 03:31:37;;;;;;;6.03;4.00;;;;;;;27.04;34.28;100023.91;5116408;28;20094;-69
2021/08/11 03:34:05;;;;;;;6.85;2.90;;;;;;;27.05;33.71;100019.75;5116102;28;20027;-70
2021/08/11 03:36:33;;;;;;;6.35;2.50;;;;;;;27.10;33.33;100027.72;5115946;28;20032;-70
2021/08/11 03:39:02;;;;;;;4.63;2.17;;;;;;;27.05;33.19;100036.91;5116486;28;20032;-69
2021/08/11 03:41:28;;;;;;;2.65;2.35;;;;;;;27.01;33.48;100030.59;5116189;28;20024;-70
2021/08/11 03:43:53;;;;;;;8.18;3.90;;;;;;;27.01;33.25;100027.72;5115805;28;20537;-70
2021/08/11 03:46:22;;;;;;;5.50;3.00;;;;;;;27.15;32.96;100012.78;5116109;28;20118;-70
2021/08/11 03:48:52;;;;;;;5.35;3.22;;;;;;;27.13;32.92;100014.56;5115763;28;20042;-70
2021/08/11 03:51:18;;;;;;;5.85;2.58;;;;;;;27.19;33.16;100006.13;5115692;28;20031;-70
2021/08/11 03:53:46;;;;;;;5.18;2.50;;;;;;;27.22;32.71;100002.28;5115701;28;20040;-69
2021/08/11 03:56:12;;;;;;;4.43;2.47;;;;;;;27.28;32.30;100014.66;5115971;28;20366;-70
2021/08/11 03:58:39;;;;;;;8.40;3.65;;;;;;;27.24;32.46;100011.97;5115571;28;20031;-71
2021/08/11 04:01:08;;;;;;;3.40;2.42;;;;;;;27.37;32.03;100008.88;5115468;28;20493;-69
2021/08/11 04:03:36;;;;;;;8.32;2.72;;;;;;;27.41;31.71;100006.66;5115735;28;20032;-70
2021/08/11 04:06:02;;;;;;;4.35;1.75;;;;;;;27.35;31.83;99997.94;5115616;28;20059;-71
2021/08/11 04:08:27;;;;;;;3.67;1.90;;;;;;;27.34;31.71;100007.81;5116214;28;20081;-70
2021/08/11 04:10:55;;;;;;;3.10;1.58;;;;;;;27.33;31.54;100000.50;5115382;28;20166;-70
2021/08/11 04:13:23;;;;;;;4.85;2.30;;;;;;;27.34;31.57;100001.31;5132380;27;20032;-69
2021/08/11 04:15:49;;;;;;;3.63;1.90;;;;;;;27.39;31.41;99997.78;5115444;28;20024;-70
2021/08/11 04:18:17;;;;;;;8.07;2.35;;;;;;;27.44;31.55;100004.91;5114890;28;20088;-70
2021/08/11 04:20:44;;;;;;;6.75;2.40;;;;;;;27.46;31.40;100003.13;5116756;28;20470;-70
2021/08/11 04:23:10;;;;;;;4.05;2.60;;;;;;;27.55;31.22;100005.16;5131489;27;20104;-71
2021/08/11 04:25:41;;;;;;;3.50;2.63;;;;;;;27.51;30.94;99998.84;5115340;28;20047;-70
2021/08/11 04:28:12;;;;;;;3.67;1.92;;;;;;;27.56;29.81;99990.38;5114964;28;20118;-70
2021/08/11 04:30:43;;;;;;;5.05;2.22;;;;;;;27.58;29.68;99987.81;5115193;28;20030;-70
2021/08/11 04:33:11;;;;;;;7.10;1.75;;;;;;;27.74;30.15;99977.28;5114891;28;20065;-70
2021/08/11 04:35:40;;;;;;;7.30;2.35;;;;;;;27.77;29.59;99976.31;5115072;28;20431;-70
2021/08/11 04:38:07;;;;;;;6.00;2.33;;;;;;;27.90;29.53;99985.44;5114645;28;20043;-69
2021/08/11 04:40:42;;;;;;;4.18;2.00;;;;;;;27.99;28.61;99987.44;5132184;27;20032;-70
2021/08/11 04:43:11;;;;;;;4.65;2.20;;;;;;;28.09;28.58;99984.03;5114659;27;20032;-70
2021/08/11 04:45:41;;;;;;;3.63;1.90;;;;;;;28.14;28.62;99994.00;5115968;28;20035;-71
2021/08/11 04:48:06;;;;;;;7.13;2.58;;;;;;;28.20;28.42;100000.63;5114567;28;20024;-70
2021/08/11 04:50:39;;;;;;;4.55;2.22;;;;;;;28.30;27.56;99996.41;5114565;28;20043;-70
2021/08/11 04:53:07;;;;;;;7.18;2.65;;;;;;;28.37;28.18;99986.66;5114679;28;20036;-69
2021/08/11 04:55:35;;;;;;;6.65;2.25;;;;;;;28.42;27.90;99992.50;5114794;28;20393;-70
2021/08/11 04:58:03;;;;;;;2.97;1.80;;;;;;;28.50;27.87;99992.91;5114450;28;20019;-70
2021/08/11 05:00:34;;;;;;;4.47;2.38;;;;;;;28.51;27.92;100003.09;5114553;28;20038;-70
2021/08/11 05:02:59;;;;;;;7.05;2.35;;;;;;;28.52;27.88;100001.78;5132212;27;20058;-70
2021/08/11 05:05:28;;;;;;;6.32;2.63;;;;;;;28.61;28.11;100010.31;5131597;27;20482;-72
2021/08/11 05:07:57;;;;;;;5.35;2.30;;;;;;;28.63;28.27;100013.44;5131514;27;20024;-70
2021/08/11 05:10:26;;;;;;;2.40;2.20;;;;;;;28.58;28.55;100016.22;5131501;27;20035;-71
2021/08/11 05:12:54;;;;;;;9.48;3.05;;;;;;;28.70;28.14;100010.19;5114626;28;20378;-70
2021/08/11 05:15:25;;;;;;;6.43;2.75;;;;;;;28.78;27.63;100012.69;5131251;27;20038;-71
2021/08/11 05:17:53;;;;;;;3.30;1.98;;;;;;;28.83;28.18;100012.78;5131130;27;20024;-72
2021/08/11 05:20:22;;;;;;;5.40;2.03;;;;;;;28.80;27.59;100016.63;5130858;27;20510;-70
2021/08/11 05:22:53;;;;;;;4.72;2.58;;;;;;;28.93;27.78;100007.75;5114288;28;20501;-70
2021/08/11 05:25:21;;;;;;;6.53;2.50;;;;;;;28.97;28.00;100009.13;5114286;28;20521;-70
2021/08/11 05:27:50;;;;;;;4.50;2.88;;;;;;;29.03;28.00;100019.91;5131369;27;20374;-71
2021/08/11 05:30:15;;;;;;;6.38;2.42;;;;;;;29.07;28.09;100027.00;5131032;27;20063;-70
2021/08/11 05:32:44;;;;;;;6.22;2.30;;;;;;;29.11;28.12;100021.88;5113538;28;20120;-70
2021/08/11 05:35:14;;;;;;;4.28;2.45;;;;;;;29.17;27.68;100028.47;5113880;28;20110;-70
2021/08/11 05:37:43;;;;;;;4.18;2.42;;;;;;;29.18;28.16;100035.78;5114705;28;20513;-70
2021/08/11 05:40:12;;;;;;;4.80;2.30;;;;;;;29.27;27.93;100054.16;5130901;27;20035;-70
2021/08/11 05:42:40;;;;;;;10.38;2.95;;;;;;;29.35;27.86;100061.06;5131192;27;20110;-71
2021/08/11 05:45:06;;;;;;;4.50;3.03;;;;;;;29.41;27.95;100065.63;5113767;28;20526;-70
2021/08/11 05:47:36;;;;;;;5.28;3.45;;;;;;;29.49;28.13;100061.03;5113983;28;20027;-72
2021/08/11 05:50:08;;;;;;;9.52;4.28;;;;;;;29.62;28.08;100057.13;5113721;28;20494;-71
2021/08/11 05:52:41;;;;;;;11.07;3.75;;;;;;;29.74;27.75;100058.84;5114604;28;20027;-70
2021/08/11 05:55:10;;;;;;;5.13;2.60;;;;;;;29.85;27.77;100053.28;5113899;28;20031;-71
2021/08/11 05:57:44;;;;;;;6.35;2.80;;;;;;;29.95;28.08;100059.69;5130298;27;20024;-70
2021/08/11 06:00:10;;;;;;;14.00;4.65;;;;;;;30.00;28.16;100073.31;5114577;28;20034;-71
2021/08/11 06:02:40;;;;;;;8.23;6.18;;;;;;;30.11;28.63;100087.00;5113618;28;20119;-71
2021/08/11 06:05:10;;;;;;;12.80;5.55;;;;;;;30.18;28.68;100086.59;5114238;28;20030;-70
2021/08/11 06:07:38;;;;;;;10.70;4.63;;;;;;;30.29;29.48;100103.19;5113177;28;20027;-71
2021/08/11 06:10:07;;;;;;;9.85;3.42;;;;;;;30.43;29.36;100103.13;5130364;27;20023;-70
2021/08/11 06:12:36;;;;;;;5.20;2.88;;;;;;;30.68;28.98;100107.34;5113530;28;20417;-70
2021/08/11 06:15:03;;;;;;;6.65;2.45;;;;;;;31.09;29.02;100117.97;5112977;28;20088;-71
2021/08/11 06:17:31;;;;;;;10.63;2.50;;;;;;;31.69;28.12;100128.47;5112828;28;20020;-70
2021/08/11 06:20:17;;;;;;;8.68;2.30;;;;;;;32.25;26.90;100128.88;5114054;28;20055;-70
2021/08/11 06:22:48;;;;;;;8.45;2.83;;;;;;;32.85;26.73;100149.06;5113504;28;20403;-71
2021/08/11 06:25:18;;;;;;;12.10;3.28;;;;;;;32.77;27.52;100159.50;5113167;28;20042;-70
2021/08/11 06:27:46;;;;;;;8.35;2.85;;;;;;;32.88;27.38;100148.03;5114381;28;20028;-71
2021/08/11 06:30:14;;;;;;;10.68;2.97;;;;;;;33.00;27.39;100166.94;5112828;28;20031;-71
2021/08/11 06:32:43;;;;;;;6.50;2.90;;;;;;;33.07;26.50;100165.66;5112793;28;20019;-71
2021/08/11 06:35:10;;;;;;;4.68;3.05;;;;;;;33.36;25.96;100176.72;5112745;28;20020;-71
2021/08/11 06:37:47;;;;;;;6.95;3.53;;;;;;;33.96;25.07;100175.75;5114338;28;20023;-71
2021/08/11 06:40:14;;;;;;;7.95;2.97;;;;;;;34.37;24.83;100194.06;5112891;28;20546;-71
2021/08/11 06:42:42;;;;;;;10.85;3.55;;;;;;;34.67;24.41;100200.00;5113864;28;20374;-71
2021/08/11 06:45:11;;;;;;;3.90;2.40;;;;;;;35.06;24.04;100207.00;5115698;28;20066;-71
2021/08/11 06:47:39;;;;;;;11.50;2.80;;;;;;;35.11;24.30;100209.84;5120039;28;20020;-70
2021/08/11 06:50:09;;;;;;;4.43;2.45;;;;;;;35.06;24.51;100218.56;5119720;28;20020;-71
2021/08/11 06:52:41;;;;;;;7.68;3.13;;;;;;;34.88;25.06;100220.69;5137079;27;20394;-71
2021/08/11 06:55:10;;;;;;;8.43;3.55;;;;;;;33.97;27.00;100214.84;5119468;27;20039;-71
2021/08/11 06:57:40;;;;;;;11.27;3.17;;;;;;;33.84;27.56;100224.00;5119150;27;20027;-71
2021/08/11 07:00:09;;;;;;;12.75;6.65;;;;;;;33.33;28.49;100218.13;5119175;27;20030;-72
2021/08/11 07:02:38;;;;;;;23.95;10.30;;;;;;;32.58;30.13;100213.88;5120334;27;20502;-71
2021/08/11 07:05:04;;;;;;;21.50;9.90;;;;;;;32.10;30.21;100217.47;5119129;27;20080;-72
2021/08/11 07:07:33;;;;;;;21.58;9.05;;;;;;;31.55;30.05;100212.81;5119030;27;20144;-72
2021/08/11 07:10:01;;;;;;;19.05;9.48;;;;;;;31.21;31.31;100217.38;5119601;28;20031;-71
2021/08/11 07:12:27;;;;;;;16.08;8.73;;;;;;;30.88;31.62;100226.38;5119503;27;20035;-71
2021/08/11 07:14:55;;;;;;;18.33;9.63;;;;;;;30.94;31.94;100219.41;5118704;27;20049;-72
2021/08/11 07:17:23;;;;;;;23.40;9.60;;;;;;;30.87;31.92;100219.84;5120655;27;20030;-72
2021/08/11 07:19:52;;;;;;;19.00;10.65;;;;;;;31.04;31.60;100222.94;5118762;27;20044;-71
2021/08/11 07:22:22;;;;;;;28.40;11.55;;;;;;;31.46;31.43;100222.38;5119200;27;20039;-71
2021/08/11 07:24:51;;;;;;;18.75;11.15;;;;;;;32.23;30.03;100240.09;5118974;27;20027;-71
2021/08/11 07:27:17;;;;;;;21.80;12.45;;;;;;;32.55;29.26;100235.09;5118934;27;20024;-71
2021/08/11 07:29:44;;;;;;;19.33;11.60;;;;;;;33.27;28.12;100242.50;5118899;27;20047;-71
2021/08/11 07:32:15;;;;;;;17.83;10.95;;;;;;;33.96;27.04;100242.13;5118764;28;20024;-71
2021/08/11 07:34:46;;;;;;;22.20;11.07;;;;;;;34.42;26.62;100243.66;5119255;27;20031;-72
2021/08/11 07:37:14;;;;;;;18.42;10.27;;;;;;;34.52;26.11;100239.22;5118926;28;20118;-71
2021/08/11 07:39:45;;;;;;;28.02;11.43;;;;;;;35.26;24.81;100237.63;5119888;27;20027;-71
2021/08/11 07:42:14;;;;;;;21.90;10.77;;;;;;;36.01;23.81;100243.19;5118763;28;20042;-71
2021/08/11 07:44:44;;;;;;;17.08;10.23;;;;;;;36.52;23.42;100255.13;5118479;27;20031;-71
2021/08/11 07:47:13;;;;;;;18.45;10.80;;;;;;;36.80;22.68;100246.09;5119409;28;20078;-71
2021/08/11 07:49:40;;;;;;;21.80;10.13;;;;;;;36.66;22.93;100245.22;5118591;27;20028;-70
2021/08/11 07:52:09;;;;;;;18.02;9.13;;;;;;;36.51;22.20;100244.88;5118584;27;20102;-71
2021/08/11 07:54:37;;;;;;;16.58;7.97;;;;;;;36.74;21.71;100240.38;5118657;27;20030;-71
2021/08/11 07:57:05;;;;;;;20.25;6.55;;;;;;;36.76;20.80;100234.84;5116588;27;20027;-71
2021/08/11 07:59:33;;;;;;;8.75;4.43;;;;;;;36.63;19.87;100228.91;5115745;28;20047;-71
2021/08/11 08:02:04;;;;;;;18.30;5.95;;;;;;;37.08;19.36;100222.63;5115533;28;20470;-72
2021/08/11 08:04:32;;;;;;;12.82;5.15;;;;;;;37.31;19.14;100223.84;5115112;28;20122;-71
2021/08/11 08:07:00;;;;;;;11.88;5.18;;;;;;;36.28;20.02;100221.91;5115182;28;20124;-71
2021/08/11 08:09:28;;;;;;;11.38;5.28;;;;;;;36.39;19.88;100221.78;5115325;28;20027;-72
2021/08/11 08:11:56;;;;;;;13.75;5.38;;;;;;;36.94;19.58;100225.41;5115139;28;20031;-72
2021/08/11 08:14:24;;;;;;;15.02;6.45;;;;;;;37.64;19.52;100218.91;5116704;28;20034;-71
2021/08/11 08:16:52;;;;;;;13.45;5.95;;;;;;;37.86;19.40;100226.50;5115033;28;20020;-71
2021/08/11 08:19:20;;;;;;;9.65;4.97;;;;;;;38.48;18.86;100224.06;5114701;28;20138;-71
2021/08/11 08:21:53;;;;;;;7.13;5.70;;;;;;;39.16;18.51;100225.63;5115221;28;20130;-71
2021/08/11 08:24:22;;;;;;;8.43;5.18;;;;;;;39.53;17.72;100225.31;5115365;28;20047;-72
2021/08/11 08:26:48;;;;;;;11.43;5.05;;;;;;;39.41;17.18;100221.09;5114965;28;20051;-71
2021/08/11 08:29:16;;;;;;;15.07;6.35;;;;;;;38.67;18.18;100217.34;5098080;28;20031;-71
2021/08/11 08:31:44;;;;;;;11.30;5.68;;;;;;;38.48;17.66;100194.22;5114754;28;20032;-71
2021/08/11 08:34:15;;;;;;;11.55;5.15;;;;;;;38.78;18.06;100203.44;5115019;28;20053;-70
2021/08/11 08:36:43;;;;;;;12.82;5.90;;;;;;;39.06;17.80;100198.34;5115338;28;20484;-71
2021/08/11 08:39:12;;;;;;;8.73;6.18;;;;;;;39.66;16.91;100188.78;5114676;28;20034;-71
2021/08/11 08:41:46;;;;;;;6.40;5.20;;;;;;;38.95;17.47;100196.47;5131717;27;20024;-71
2021/08/11 08:44:13;;;;;;;15.15;6.78;;;;;;;39.15;17.97;100200.75;5116135;27;20103;-71
2021/08/11 08:46:42;;;;;;;15.63;5.90;;;;;;;39.23;17.62;100198.78;5114955;27;20036;-70
2021/08/11 08:49:10;;;;;;;8.93;5.25;;;;;;;39.51;17.19;100213.44;5114335;28;20028;-71
2021/08/11 08:51:43;;;;;;;11.25;5.78;;;;;;;39.25;17.30;100207.69;5131281;27;20144;-71
2021/08/11 08:54:22;;;;;;;11.68;5.57;;;;;;;40.02;17.20;100215.91;5114843;28;20028;-71
2021/08/11 08:56:47;;;;;;;13.32;5.97;;;;;;;40.22;16.87;100210.66;5131741;27;20429;-72
2021/08/11 08:59:16;;;;;;;11.80;6.07;;;;;;;39.50;17.98;100211.88;5114235;28;20084;-71
2021/08/11 09:01:44;;;;;;;11.32;6.47;;;;;;;39.71;17.52;100214.06;5131079;27;20138;-71
2021/08/11 09:04:15;;;;;;;8.50;6.80;;;;;;;39.78;17.49;100201.69;5115652;28;20039;-70
2021/08/11 09:06:43;;;;;;;9.55;7.03;;;;;;;39.60;18.04;100209.28;5114390;28;20055;-72
2021/08/11 09:09:12;;;;;;;16.70;5.80;;;;;;;40.57;16.77;100203.34;5113487;28;20036;-71
2021/08/11 09:11:43;;;;;;;11.88;5.90;;;;;;;41.20;16.31;100209.72;5114882;28;20110;-70
2021/08/11 09:14:20;;;;;;;8.80;5.57;;;;;;;41.13;16.16;100209.69;5131132;27;20110;-72
2021/08/11 09:16:54;;;;;;;9.93;5.75;;;;;;;40.67;15.89;100203.59;5114097;28;20027;-71
2021/08/11 09:19:26;;;;;;;6.60;4.20;;;;;;;40.49;16.48;100199.59;5113641;28;20044;-72
2021/08/11 09:22:02;;;;;;;12.60;5.82;;;;;;;39.84;16.67;100208.16;5113791;28;20027;-71
2021/08/11 09:24:38;;;;;;;7.68;4.85;;;;;;;40.05;16.85;100190.66;5113704;28;20051;-72
2021/08/11 09:27:21;;;;;;;8.50;4.85;;;;;;;40.56;16.23;100184.28;5130774;27;20028;-72
2021/08/11 09:30:10;;;;;;;6.53;4.43;;;;;;;41.03;15.31;100198.56;5113636;28;20023;-71
2021/08/11 09:33:02;;;;;;;9.43;4.20;;;;;;;41.42;14.77;100208.25;5113582;28;20027;-71
2021/08/11 09:35:38;;;;;;;6.68;3.70;;;;;;;41.90;14.34;100222.38;5102999;28;20040;-71
2021/08/11 09:38:07;;;;;;;5.95;3.30;;;;;;;42.18;14.00;100227.25;5113399;28;20470;-73
2021/08/11 09:40:36;;;;;;;8.65;4.30;;;;;;;42.06;14.22;100230.56;5113978;28;20373;-71
2021/08/11 09:43:03;;;;;;;8.13;3.20;;;;;;;42.47;13.41;100239.53;5113403;28;20115;-72
2021/08/11 09:45:48;;;;;;;8.63;3.47;;;;;;;42.78;13.24;100240.28;5096775;28;20151;-71
2021/08/11 09:48:23;;;;;;;9.68;3.20;;;;;;;42.49;13.22;100252.19;5114111;28;20036;-70
2021/08/11 09:50:58;;;;;;;8.25;3.13;;;;;;;41.93;13.91;100262.91;5130648;27;20377;-71
2021/08/11 09:53:26;;;;;;;6.05;2.78;;;;;;;41.85;13.77;100289.16;5131073;27;20410;-70
2021/08/11 09:56:03;;;;;;;11.18;3.72;;;;;;;41.10;15.22;100288.25;5113084;28;20027;-71
2021/08/11 09:58:40;;;;;;;12.48;3.83;;;;;;;40.62;15.72;100283.28;5113537;28;20170;-71
2021/08/11 10:01:13;;;;;;;8.27;3.70;;;;;;;41.22;15.16;100261.66;5113041;28;20028;-71
2021/08/11 10:04:03;;;;;;;7.75;3.90;;;;;;;40.63;15.28;100264.41;5113954;27;20030;-70
2021/08/11 10:06:42;;;;;;;10.27;3.85;;;;;;;40.31;16.23;100256.75;5130422;27;20027;-71
2021/08/11 10:09:26;;;;;;;8.80;3.70;;;;;;;39.77;16.41;100252.56;5129870;27;20024;-71
2021/08/11 10:11:57;;;;;;;5.28;3.22;;;;;;;39.56;16.41;100249.59;5129908;27;20024;-71
2021/08/11 10:14:30;;;;;;;8.02;3.25;;;;;;;39.82;16.22;100242.91;5113157;28;20031;-72
2021/08/11 10:17:01;;;;;;;7.82;3.30;;;;;;;40.12;16.36;100257.00;5129725;27;20147;-71
2021/08/11 10:19:35;;;;;;;7.25;3.90;;;;;;;40.78;15.41;100247.00;5112869;28;20051;-71
2021/08/11 10:22:11;;;;;;;5.75;3.47;;;;;;;40.39;16.08;100248.88;5113395;28;20023;-71
2021/08/11 10:24:39;;;;;;;3.58;2.90;;;;;;;40.64;15.74;100239.72;5112057;28;20028;-71
2021/08/11 10:27:06;;;;;;;5.90;3.22;;;;;;;40.37;15.68;100237.00;5113448;28;20466;-70
2021/08/11 10:29:41;;;;;;;4.70;3.35;;;;;;;39.96;15.88;100224.00;5095136;28;20036;-70
2021/08/11 10:32:10;;;;;;;10.15;4.15;;;;;;;39.83;16.52;100200.78;5112293;28;20024;-70
2021/08/11 10:34:37;;;;;;;5.78;3.42;;;;;;;40.04;16.89;100207.38;5112320;28;20031;-71
2021/08/11 10:37:07;;;;;;;6.28;3.33;;;;;;;39.17;16.90;100209.72;5112465;28;20024;-70
2021/08/11 10:39:36;;;;;;;9.88;3.67;;;;;;;39.08;16.89;100210.97;5126280;27;20126;-70
2021/08/11 10:42:14;;;;;;;8.77;3.92;;;;;;;38.97;17.20;100211.22;5113728;28;20030;-70
2021/08/11 10:44:41;;;;;;;7.18;3.58;;;;;;;39.32;17.09;100218.66;5095826;28;20486;-70
2021/08/11 10:47:11;;;;;;;5.35;3.08;;;;;;;38.72;17.08;100196.09;5129838;28;20051;-71
2021/08/11 10:49:54;;;;;;;9.23;3.58;;;;;;;38.33;17.20;100136.66;5113599;28;20060;-71
2021/08/11 10:52:26;;;;;;;6.80;3.88;;;;;;;37.53;17.84;100115.38;5113347;28;20024;-70
2021/08/11 10:54:56;;;;;;;8.15;3.47;;;;;;;37.29;18.61;100133.69;5114108;28;20110;-70
2021/08/11 10:57:37;;;;;;;6.93;3.08;;;;;;;37.86;17.27;100136.47;5112076;28;20027;-70
2021/08/11 11:00:10;;;;;;;10.07;3.67;;;;;;;38.29;16.65;100132.53;5112297;28;20179;-71
2021/08/11 11:02:48;;;;;;;8.40;4.28;;;;;;;38.96;17.16;100139.84;5112272;28;20031;-71
2021/08/11 11:05:20;;;;;;;7.00;3.70;;;;;;;39.40;20.42;100138.03;5113091;28;20414;-70
2021/08/11 11:08:10;;;;;;;6.10;4.10;;;;;;;40.00;19.24;100122.47;5112272;28;20027;-71
2021/08/11 11:10:37;;;;;;;12.45;4.20;;;;;;;38.62;19.76;100116.50;5112989;28;20293;-71
2021/08/11 11:13:26;;;;;;;12.57;4.40;;;;;;;38.56;19.87;100105.00;5112712;28;20046;-70
2021/08/11 11:15:55;;;;;;;6.82;4.30;;;;;;;38.97;19.71;100107.28;5112135;28;20026;-71
2021/08/11 11:18:24;;;;;;;12.95;4.32;;;;;;;38.43;19.87;100094.19;5111812;28;20026;-70
2021/08/11 11:20:56;;;;;;;7.78;3.97;;;;;;;37.80;19.99;100098.03;5129777;28;20080;-70
2021/08/11 11:23:31;;;;;;;9.02;4.50;;;;;;;38.67;19.01;100052.47;5112156;28;20114;-70
2021/08/11 11:26:05;;;;;;;7.43;4.05;;;;;;;39.06;18.93;100067.44;5112157;28;20034;-71
2021/08/11 11:29:09;;;;;;;5.60;3.95;;;;;;;38.93;18.81;100069.03;5113654;28;20023;-70
2021/08/11 11:31:41;;;;;;;8.98;4.63;;;;;;;38.77;18.57;100049.88;5082628;28;20047;-70
2021/08/11 11:34:25;;;;;;;;;;;;;;;39.60;17.72;100054.19;5133525;27;20036;-71
2021/08/11 11:36:57;;;;;;;7.38;4.55;;;;;;;39.58;17.84;100053.97;5116825;28;20006;-71
2021/08/11 11:39:25;;;;;;;7.78;4.38;;;;;;;39.42;17.85;100044.31;5116003;28;20102;-71
2021/08/11 11:42:06;;;;;;;6.78;4.22;;;;;;;39.59;17.77;100038.09;5115935;28;20031;-70